Time;durP1;ratioP1;P1;durP2;ratioP2;P2;SDS_P1;SDS_P2;PMS_P1;PMS_P2;Temp;Humidity;BMP_temperature;BMP_pressure;BME280_temperature;BME280_humidity;BME280_pressure;Samples;Min_cycle;Max_cycle;Signal;HPM_P1;HPM_P2
2023/12/20 00:00:55;;;;;;;27.33;16.15;;;;;;;0.63;100.00;100920.22;4991854;28;20030;-73
2023/12/20 00:03:20;;;;;;;21.75;13.85;;;;;;;1.20;100.00;101015.59;4991494;28;20089;-74
2023/12/20 00:05:46;;;;;;;24.30;15.57;;;;;;;1.24;100.00;101010.00;4991894;28;20030;-73
2023/12/20 00:08:12;;;;;;;26.27;15.27;;;;;;;1.20;100.00;101006.28;4991598;28;20556;-73
2023/12/20 00:10:37;;;;;;;23.58;13.88;;;;;;;1.12;100.00;101007.31;4991566;28;20117;-73
2023/12/20 00:13:03;;;;;;;23.52;15.27;;;;;;;0.90;100.00;100980.09;4991702;28;20417;-73
2023/12/20 00:15:29;;;;;;;27.58;15.43;;;;;;;1.01;100.00;101002.97;4991885;28;20096;-74
2023/12/20 00:17:54;;;;;;;25.27;15.23;;;;;;;0.87;100.00;100984.91;4991620;28;20045;-74
2023/12/20 00:20:19;;;;;;;25.23;15.32;;;;;;;0.92;100.00;100993.84;4991711;28;20035;-74
2023/12/20 00:22:45;;;;;;;25.52;14.55;;;;;;;0.59;100.00;100986.78;4991642;28;20534;-74
2023/12/20 00:25:10;;;;;;;26.67;16.48;;;;;;;0.51;100.00;100987.78;4991491;28;20026;-74
2023/12/20 00:27:36;;;;;;;27.55;15.77;;;;;;;0.37;100.00;100982.38;4991637;28;20038;-73
2023/12/20 00:30:01;;;;;;;29.55;16.40;;;;;;;0.19;100.00;100980.81;4991442;28;20049;-74
2023/12/20 00:32:27;;;;;;;27.75;16.98;;;;;;;0.13;100.00;100978.63;4989948;28;20404;-73
2023/12/20 00:34:52;;;;;;;26.73;16.98;;;;;;;-0.55;100.00;100882.28;4990314;28;20034;-73
2023/12/20 00:37:18;;;;;;;30.83;18.23;;;;;;;0.05;100.00;100974.53;5005509;28;20042;-73
2023/12/20 00:39:43;;;;;;;29.63;17.63;;;;;;;0.12;100.00;100966.69;4991211;28;20477;-73
2023/12/20 00:42:09;;;;;;;31.35;17.08;;;;;;;0.18;100.00;100968.88;4991251;28;20026;-74
2023/12/20 00:44:34;;;;;;;32.28;18.25;;;;;;;0.22;100.00;100963.31;4991392;28;20038;-73
2023/12/20 00:47:00;;;;;;;30.02;18.08;;;;;;;0.34;100.00;100961.81;4991386;28;20516;-73
2023/12/20 00:49:26;;;;;;;27.35;16.38;;;;;;;0.37;100.00;100967.16;4991223;28;20118;-73
2023/12/20 00:51:52;;;;;;;27.25;15.52;;;;;;;0.35;100.00;100953.44;4991380;28;20149;-73
2023/12/20 00:54:18;;;;;;;26.38;14.93;;;;;;;0.36;100.00;100956.88;4991266;28;20088;-73
2023/12/20 00:56:43;;;;;;;27.98;15.07;;;;;;;-0.22;100.00;100868.22;4991399;28;20125;-73
2023/12/20 00:59:09;;;;;;;28.60;15.57;;;;;;;0.18;100.00;100948.56;4991369;28;20031;-73
2023/12/20 01:01:35;;;;;;;31.88;14.88;;;;;;;0.16;100.00;100950.97;4990997;28;20405;-73
2023/12/20 01:04:00;;;;;;;26.17;16.90;;;;;;;0.20;100.00;100942.88;4990899;28;20030;-74
2023/12/20 01:06:26;;;;;;;26.83;16.33;;;;;;;0.28;100.00;100938.44;5003434;28;20121;-73
2023/12/20 01:08:51;;;;;;;28.02;16.40;;;;;;;0.37;100.00;100936.66;5013404;28;20431;-73
2023/12/20 01:11:17;;;;;;;27.45;15.98;;;;;;;0.32;100.00;100925.25;5014449;28;20041;-74
2023/12/20 01:13:42;;;;;;;24.77;14.68;;;;;;;0.45;100.00;100933.16;5014255;28;20030;-73
2023/12/20 01:16:11;;;;;;;28.67;15.70;;;;;;;0.42;100.00;100945.56;5014444;28;20037;-74
2023/12/20 01:18:36;;;;;;;24.70;14.23;;;;;;;0.36;100.00;100911.16;5013284;28;20042;-74
2023/12/20 01:21:05;;;;;;;27.63;14.45;;;;;;;0.07;100.00;100846.97;5014071;28;20044;-73
2023/12/20 01:23:31;;;;;;;27.05;14.93;;;;;;;0.28;100.00;100880.91;5014016;28;20484;-73
2023/12/20 01:25:59;;;;;;;26.58;14.60;;;;;;;0.60;100.00;100937.75;5014334;28;20139;-73
2023/12/20 01:28:27;;;;;;;25.27;15.93;;;;;;;0.42;100.00;100927.78;5014044;28;20034;-73
2023/12/20 01:30:53;;;;;;;25.05;15.05;;;;;;;0.15;100.00;100921.28;5013990;28;20034;-74
2023/12/20 01:33:18;;;;;;;27.40;14.52;;;;;;;0.07;100.00;100905.34;5014071;28;20036;-74
2023/12/20 01:35:44;;;;;;;26.73;15.38;;;;;;;-0.04;100.00;100896.84;5014227;28;20030;-73
2023/12/20 01:38:09;;;;;;;32.10;16.35;;;;;;;-0.48;100.00;100832.97;5013847;28;20480;-73
2023/12/20 01:40:35;;;;;;;27.80;16.67;;;;;;;-0.21;100.00;100899.56;5014033;28;20030;-73
2023/12/20 01:43:02;;;;;;;27.90;16.57;;;;;;;-0.34;100.00;100898.50;5013711;28;20444;-73
2023/12/20 01:45:28;;;;;;;32.87;18.50;;;;;;;-0.36;100.00;100905.06;5013719;28;20029;-74
2023/12/20 01:47:56;;;;;;;34.00;19.73;;;;;;;-0.36;100.00;100894.94;5012892;28;20034;-73
2023/12/20 01:50:22;;;;;;;32.13;17.27;;;;;;;-0.37;100.00;100882.13;5013603;28;20108;-73
2023/12/20 01:52:48;;;;;;;44.80;19.98;;;;;;;-0.38;100.00;100855.84;5013423;28;20457;-73
2023/12/20 01:55:15;;;;;;;29.65;17.27;;;;;;;-0.22;100.00;100888.50;5013445;28;20032;-73
2023/12/20 01:57:44;;;;;;;31.52;17.17;;;;;;;-0.22;100.00;100857.19;5013515;28;20026;-74
2023/12/20 02:00:11;;;;;;;28.98;17.35;;;;;;;-0.02;100.00;100867.38;5013415;28;20091;-74
2023/12/20 02:02:39;;;;;;;32.33;17.67;;;;;;;0.09;100.00;100863.25;5013634;28;20104;-74
2023/12/20 02:05:06;;;;;;;32.22;17.60;;;;;;;-0.38;100.00;100773.78;5013348;28;20030;-73
2023/12/20 02:07:31;;;;;;;24.98;15.43;;;;;;;0.12;100.00;100855.88;5013073;28;20054;-73
2023/12/20 02:09:57;;;;;;;26.13;14.80;;;;;;;0.20;100.00;100863.25;5013111;28;20062;-74
2023/12/20 02:12:23;;;;;;;25.35;13.93;;;;;;;0.19;100.00;100848.75;5013311;28;20052;-73
2023/12/20 02:14:49;;;;;;;25.83;14.65;;;;;;;0.27;100.00;100850.31;5013347;28;20133;-73
2023/12/20 02:17:15;;;;;;;24.33;14.25;;;;;;;0.31;100.00;100853.25;5012457;28;20092;-73
2023/12/20 02:19:41;;;;;;;26.60;14.23;;;;;;;0.28;100.00;100857.19;5013275;28;20408;-73
2023/12/20 02:22:12;;;;;;;22.02;14.38;;;;;;;-0.30;100.00;100744.00;5013289;28;20034;-73
2023/12/20 02:24:38;;;;;;;23.75;14.15;;;;;;;0.31;100.00;100847.25;5014025;28;20389;-73
2023/12/20 02:27:06;;;;;;;23.85;14.70;;;;;;;0.29;100.00;100847.16;5013522;28;20057;-73
2023/12/20 02:29:33;;;;;;;23.73;13.68;;;;;;;-0.11;100.00;100771.81;5013483;28;20038;-73
2023/12/20 02:31:59;;;;;;;24.98;14.10;;;;;;;0.37;100.00;100846.91;5012841;28;20527;-73
2023/12/20 02:34:24;;;;;;;22.00;13.60;;;;;;;0.32;100.00;100833.81;5012723;28;20030;-73
2023/12/20 02:36:50;;;;;;;23.80;13.95;;;;;;;0.38;100.00;100839.41;5012940;28;20030;-73
2023/12/20 02:39:15;;;;;;;24.20;14.40;;;;;;;0.32;100.00;100842.34;5012840;28;20030;-73
2023/12/20 02:41:41;;;;;;;23.90;14.00;;;;;;;0.31;100.00;100837.09;5012478;28;20061;-73
2023/12/20 02:44:06;;;;;;;23.80;14.27;;;;;;;0.14;100.00;100818.81;5012492;28;20100;-73
2023/12/20 02:46:32;;;;;;;30.52;14.07;;;;;;;0.28;100.00;100836.88;5012782;28;20108;-73
2023/12/20 02:48:57;;;;;;;25.50;14.65;;;;;;;0.28;100.00;100845.34;5012431;28;20115;-73
2023/12/20 02:51:23;;;;;;;23.88;14.00;;;;;;;0.29;100.00;100833.56;5012431;28;20108;-73
2023/12/20 02:53:48;;;;;;;28.20;14.25;;;;;;;0.26;100.00;100828.22;5012481;28;20030;-73
2023/12/20 02:56:14;;;;;;;22.63;13.75;;;;;;;0.21;100.00;100837.09;5011990;28;20117;-73
2023/12/20 02:58:40;;;;;;;21.92;13.77;;;;;;;0.20;100.00;100822.63;5012615;28;20038;-73
2023/12/20 03:01:05;;;;;;;25.48;15.05;;;;;;;0.15;100.00;100820.59;5012327;28;20030;-73
2023/12/20 03:03:31;;;;;;;24.70;14.10;;;;;;;0.20;100.00;100827.69;5012100;28;20026;-73
2023/12/20 03:05:57;;;;;;;27.67;15.25;;;;;;;0.07;100.00;100831.75;5012327;28;20037;-73
2023/12/20 03:08:22;;;;;;;24.73;13.95;;;;;;;-0.09;100.00;100799.09;5012349;28;20054;-73
2023/12/20 03:10:48;;;;;;;25.42;14.30;;;;;;;-0.07;100.00;100825.50;5012268;28;20041;-73
2023/12/20 03:13:14;;;;;;;23.77;15.13;;;;;;;-0.20;100.00;100826.13;5012293;28;20040;-73
2023/12/20 03:15:40;;;;;;;27.73;14.45;;;;;;;-0.80;100.00;100734.72;5012172;28;20036;-73
2023/12/20 03:18:06;;;;;;;25.17;14.95;;;;;;;-0.73;100.00;100761.50;5010952;28;20465;-73
2023/12/20 03:20:35;;;;;;;25.43;14.90;;;;;;;-0.54;100.00;100800.34;5011805;28;20028;-74
2023/12/20 03:23:01;;;;;;;36.83;16.50;;;;;;;-0.56;100.00;100809.50;5012018;28;20120;-73
2023/12/20 03:25:26;;;;;;;28.17;15.90;;;;;;;-0.69;100.00;100801.56;5011822;28;20034;-73
2023/12/20 03:27:52;;;;;;;35.40;17.07;;;;;;;-0.77;100.00;100792.41;5011750;28;20018;-73
2023/12/20 03:30:18;;;;;;;31.73;16.93;;;;;;;-0.87;100.00;100771.34;5010786;28;20105;-73
2023/12/20 03:32:44;;;;;;;33.27;18.37;;;;;;;-1.01;100.00;100786.97;5011896;28;20030;-72
2023/12/20 03:35:10;;;;;;;27.90;16.23;;;;;;;-1.35;100.00;100784.84;5011611;28;20400;-71
2023/12/20 03:37:36;;;;;;;34.50;17.73;;;;;;;-1.39;100.00;100787.00;5010421;28;20117;-73
2023/12/20 03:40:01;;;;;;;36.87;18.83;;;;;;;-1.44;100.00;100789.09;5011621;28;20033;-73
2023/12/20 03:42:27;;;;;;;39.33;18.53;;;;;;;-1.80;100.00;100750.47;5011680;28;20084;-73
2023/12/20 03:44:52;;;;;;;310.87;146.43;;;;;;;-1.86;100.00;100781.94;5011520;28;20026;-72
2023/12/20 03:47:18;;;;;;;90.47;45.07;;;;;;;-1.86;100.00;100779.41;5011476;28;20098;-73
2023/12/20 03:49:43;;;;;;;54.03;28.33;;;;;;;-1.86;100.00;100772.69;5011286;28;20392;-73
2023/12/20 03:52:09;;;;;;;45.23;22.07;;;;;;;-1.86;100.00;100765.09;5011404;28;20037;-73
2023/12/20 03:54:38;;;;;;;59.47;38.83;;;;;;;-1.90;100.00;100770.63;5011172;28;20041;-73
2023/12/20 03:57:04;;;;;;;56.83;32.95;;;;;;;-2.17;100.00;100720.94;5011535;28;20113;-73
2023/12/20 03:59:30;;;;;;;50.03;26.13;;;;;;;-2.38;100.00;100684.44;5011753;28;20045;-73
2023/12/20 04:01:55;;;;;;;47.40;23.53;;;;;;;-1.92;100.00;100767.06;5011551;28;20030;-73
2023/12/20 04:04:21;;;;;;;51.13;27.33;;;;;;;-1.87;100.00;100788.66;5025401;28;20053;-73
2023/12/20 04:06:46;;;;;;;45.67;25.43;;;;;;;-1.87;100.00;100762.44;5011142;28;20519;-73
2023/12/20 04:09:12;;;;;;;48.10;24.07;;;;;;;-1.76;100.00;100771.88;5011293;28;20062;-73
2023/12/20 04:11:38;;;;;;;41.30;22.30;;;;;;;-1.83;100.00;100747.69;5011313;28;20176;-73
2023/12/20 04:14:04;;;;;;;45.17;21.87;;;;;;;-1.68;100.00;100773.50;5011229;28;20503;-73
2023/12/20 04:16:30;;;;;;;44.97;23.63;;;;;;;-1.67;100.00;100770.22;4991343;28;20033;-73
2023/12/20 04:18:56;;;;;;;39.00;20.40;;;;;;;-1.68;100.00;100776.03;4991559;28;20105;-72
2023/12/20 04:21:21;;;;;;;40.03;19.27;;;;;;;-1.61;100.00;100766.44;4991349;28;20400;-73
2023/12/20 04:23:47;;;;;;;46.30;20.17;;;;;;;-1.47;100.00;100778.69;4991086;28;20461;-73
2023/12/20 04:26:12;;;;;;;33.30;18.90;;;;;;;-1.39;100.00;100776.88;4991343;28;20026;-73
2023/12/20 04:28:38;;;;;;;48.63;21.30;;;;;;;-1.72;100.00;100702.19;4991375;28;20038;-73
2023/12/20 04:31:03;;;;;;;43.37;20.87;;;;;;;-1.31;100.00;100770.81;4991189;28;20566;-73
2023/12/20 04:33:28;;;;;;;48.23;20.80;;;;;;;-1.17;100.00;100785.63;4990130;28;20026;-73
2023/12/20 04:35:54;;;;;;;59.10;19.87;;;;;;;-1.26;100.00;100751.84;4991261;28;20031;-73
2023/12/20 04:38:19;;;;;;;43.70;20.40;;;;;;;-1.14;100.00;100765.59;4991026;28;20109;-73
2023/12/20 04:40:45;;;;;;;43.33;19.87;;;;;;;-1.04;100.00;100772.38;4990622;28;20076;-73
2023/12/20 04:43:10;;;;;;;42.83;20.40;;;;;;;-0.95;100.00;100772.28;4991220;28;20081;-73
2023/12/20 04:45:36;;;;;;;39.73;20.43;;;;;;;-0.87;100.00;100780.59;4991341;28;20113;-73
2023/12/20 04:48:02;;;;;;;45.80;23.53;;;;;;;-0.89;100.00;100760.16;4991075;28;20026;-73
2023/12/20 04:50:28;;;;;;;46.03;23.37;;;;;;;-0.87;100.00;100767.91;4991288;28;20027;-73
2023/12/20 04:52:54;;;;;;;42.70;21.07;;;;;;;-1.65;100.00;100677.56;4989768;28;20478;-73
2023/12/20 04:55:19;;;;;;;41.37;21.97;;;;;;;-1.11;100.00;100774.25;4989994;28;20026;-73
2023/12/20 04:57:45;;;;;;;43.30;20.83;;;;;;;-1.09;100.00;100777.81;5005170;28;20390;-73
2023/12/20 05:00:15;;;;;;;44.03;21.23;;;;;;;-1.27;100.00;100762.75;4990941;28;20108;-73
2023/12/20 05:02:40;;;;;;;49.50;20.27;;;;;;;-1.19;100.00;100735.56;4990811;28;20034;-73
2023/12/20 05:05:07;;;;;;;38.40;18.90;;;;;;;-0.95;100.00;100759.63;4990816;28;20022;-73
2023/12/20 05:07:33;;;;;;;42.33;20.37;;;;;;;-0.91;100.00;100760.78;4990556;28;20516;-73
2023/12/20 05:09:59;;;;;;;45.00;17.33;;;;;;;-0.99;100.00;100745.78;4990782;28;20109;-73
2023/12/20 05:12:24;;;;;;;50.70;17.70;;;;;;;-1.49;100.00;100668.81;5009558;28;20111;-73
2023/12/20 05:14:52;;;;;;;41.40;19.53;;;;;;;-0.96;100.00;100752.78;4993005;28;20464;-73
2023/12/20 05:17:17;;;;;;;61.60;19.90;;;;;;;-1.04;100.00;100738.56;5010358;28;20127;-73
2023/12/20 05:19:43;;;;;;;40.20;20.70;;;;;;;-1.31;100.00;100683.09;5010553;28;20058;-73
2023/12/20 05:22:09;;;;;;;39.07;18.03;;;;;;;-0.98;100.00;100745.03;5010173;28;20029;-73
2023/12/20 05:24:34;;;;;;;35.10;16.43;;;;;;;-0.98;100.00;100737.44;5010223;28;20040;-73
2023/12/20 05:27:00;;;;;;;36.80;17.83;;;;;;;-0.89;100.00;100731.41;5010437;28;20033;-73
2023/12/20 05:29:25;;;;;;;42.63;18.27;;;;;;;-0.87;100.00;100733.31;5007993;28;20050;-73
2023/12/20 05:31:50;;;;;;;41.23;17.73;;;;;;;-0.88;100.00;100723.91;5010225;28;20536;-73
2023/12/20 05:34:16;;;;;;;35.17;17.60;;;;;;;-0.88;100.00;100728.13;5010059;28;20033;-73
2023/12/20 05:36:41;;;;;;;35.10;16.73;;;;;;;-0.87;100.00;100735.84;5010182;28;20428;-73
2023/12/20 05:39:07;;;;;;;31.43;17.37;;;;;;;-1.41;100.00;100639.06;5009768;28;20181;-73
2023/12/20 05:41:33;;;;;;;30.20;17.40;;;;;;;-0.89;100.00;100727.22;5010196;28;20045;-73
2023/12/20 05:43:59;;;;;;;32.60;18.73;;;;;;;-1.11;100.00;100693.16;5009648;28;20038;-73
2023/12/20 05:46:25;;;;;;;29.80;17.00;;;;;;;-1.02;100.00;100724.38;5009706;28;20037;-74
2023/12/20 05:48:51;;;;;;;29.50;16.13;;;;;;;-1.10;100.00;100716.09;5005246;28;20056;-73
2023/12/20 05:51:17;;;;;;;38.30;15.57;;;;;;;-1.06;100.00;100714.72;5006156;28;20519;-73
2023/12/20 05:53:44;;;;;;;43.97;18.37;;;;;;;-1.21;100.00;100704.13;5012224;28;20041;-73
2023/12/20 05:56:10;;;;;;;39.33;17.07;;;;;;;-1.28;100.00;100707.78;5014007;28;20096;-73
2023/12/20 05:58:36;;;;;;;41.23;16.23;;;;;;;-1.27;100.00;100699.44;5013638;28;20030;-73
2023/12/20 06:01:05;;;;;;;43.23;16.83;;;;;;;-1.37;100.00;100690.13;5013773;28;20033;-73
2023/12/20 06:03:31;;;;;;;49.10;15.35;;;;;;;-1.30;100.00;100711.81;5013737;28;20026;-73
2023/12/20 06:05:57;;;;;;;31.37;15.20;;;;;;;-1.34;100.00;100703.06;5008784;28;20569;-73
2023/12/20 06:08:22;;;;;;;41.73;18.60;;;;;;;-1.31;100.00;100704.97;5003061;28;20042;-73
2023/12/20 06:10:48;;;;;;;61.93;20.77;;;;;;;-1.41;100.00;100723.53;5013273;28;20026;-73
2023/12/20 06:13:14;;;;;;;178.37;56.70;;;;;;;-1.96;100.00;100610.69;5013086;28;20072;-73
2023/12/20 06:15:40;;;;;;;73.87;25.43;;;;;;;-1.45;100.00;100698.69;5012749;28;20030;-73
2023/12/20 06:18:06;;;;;;;63.87;19.57;;;;;;;-1.62;100.00;100676.94;5009891;28;20036;-73
2023/12/20 06:20:32;;;;;;;72.57;20.53;;;;;;;-1.64;100.00;100698.72;5012425;28;20487;-73
2023/12/20 06:22:58;;;;;;;55.83;20.20;;;;;;;-2.31;100.00;100613.47;5009326;28;20033;-73
2023/12/20 06:25:24;;;;;;;84.17;20.27;;;;;;;-2.19;100.00;100657.56;5011851;28;20026;-73
2023/12/20 06:27:49;;;;;;;47.83;16.77;;;;;;;-2.09;100.00;100693.81;5012649;28;20065;-73
2023/12/20 06:30:16;;;;;;;45.00;17.80;;;;;;;-2.02;100.00;100692.00;5013123;28;20044;-73
2023/12/20 06:32:42;;;;;;;32.23;17.10;;;;;;;-2.31;100.00;100619.41;5011770;28;20041;-73
2023/12/20 06:35:08;;;;;;;36.67;17.37;;;;;;;-1.68;100.00;100697.53;5012572;28;20036;-73
2023/12/20 06:37:36;;;;;;;41.57;18.03;;;;;;;-1.57;100.00;100705.19;5011686;28;20400;-73
2023/12/20 06:40:01;;;;;;;42.43;18.17;;;;;;;-1.58;100.00;100700.88;5043546;28;20427;-73
2023/12/20 06:42:27;;;;;;;33.13;17.97;;;;;;;-1.63;100.00;100690.38;5012656;28;20025;-73
2023/12/20 06:44:52;;;;;;;43.57;20.60;;;;;;;-1.86;100.00;100651.22;5011590;28;20038;-73
2023/12/20 06:47:18;;;;;;;55.23;20.17;;;;;;;-1.82;100.00;100677.69;5012112;28;20029;-73
2023/12/20 06:49:43;;;;;;;39.03;18.00;;;;;;;-1.79;100.00;100680.50;5012598;28;20046;-73
2023/12/20 06:52:09;;;;;;;45.40;20.30;;;;;;;-1.68;100.00;100681.47;5012751;28;20069;-73
2023/12/20 06:54:34;;;;;;;56.23;28.10;;;;;;;-1.98;100.00;100617.25;5012532;28;20484;-73
2023/12/20 06:57:02;;;;;;;47.43;26.23;;;;;;;-1.45;100.00;100693.63;5012296;28;20459;-73
2023/12/20 06:59:28;;;;;;;50.40;22.67;;;;;;;-1.30;100.00;100689.03;5012547;28;20116;-73
2023/12/20 07:01:54;;;;;;;39.90;21.07;;;;;;;-1.25;100.00;100679.31;5012354;28;20068;-73
2023/12/20 07:04:21;;;;;;;44.70;21.10;;;;;;;-1.01;100.00;100691.56;5013419;28;20065;-73
2023/12/20 07:06:56;;;;;;;35.63;19.20;;;;;;;-1.06;100.00;100679.25;5010138;28;20045;-73
2023/12/20 07:09:22;;;;;;;39.20;18.80;;;;;;;-0.92;100.00;100691.47;5011853;28;20046;-73
2023/12/20 07:11:47;;;;;;;36.00;18.40;;;;;;;-0.98;100.00;100676.63;5010754;28;20045;-73
2023/12/20 07:14:13;;;;;;;33.10;15.77;;;;;;;-0.92;100.00;100691.47;5011482;28;20061;-73
2023/12/20 07:16:38;;;;;;;30.50;15.63;;;;;;;-0.94;100.00;100694.63;5011755;28;20084;-73
2023/12/20 07:19:04;;;;;;;29.13;15.77;;;;;;;-1.41;100.00;100626.41;5011026;28;20060;-73
2023/12/20 07:21:29;;;;;;;33.33;17.90;;;;;;;-1.12;100.00;100693.91;5012159;28;20038;-73
2023/12/20 07:23:55;;;;;;;31.77;15.80;;;;;;;-1.17;100.00;100689.34;5010690;28;20030;-73
2023/12/20 07:26:20;;;;;;;33.80;16.77;;;;;;;-1.70;100.00;100612.09;5011895;28;20026;-73
2023/12/20 07:28:46;;;;;;;26.90;15.67;;;;;;;-1.31;100.00;100680.53;5011222;28;20377;-72
2023/12/20 07:31:11;;;;;;;28.70;14.83;;;;;;;-1.73;100.00;100596.63;5011657;28;20447;-73
2023/12/20 07:33:37;;;;;;;23.77;14.77;;;;;;;-1.42;100.00;100625.53;5011621;28;20022;-73
2023/12/20 07:36:03;;;;;;;30.07;16.33;;;;;;;-1.02;100.00;100678.78;5011917;28;20034;-72
2023/12/20 07:38:28;;;;;;;30.90;16.10;;;;;;;-0.95;100.00;100658.25;5011527;28;20018;-72
2023/12/20 07:40:54;;;;;;;33.30;15.77;;;;;;;-1.07;100.00;100642.00;5010872;28;20030;-72
2023/12/20 07:43:19;;;;;;;31.33;16.37;;;;;;;-0.96;100.00;100663.19;5011557;28;20061;-73
2023/12/20 07:45:45;;;;;;;29.17;16.10;;;;;;;-0.92;100.00;100657.63;5011334;28;20455;-73
2023/12/20 07:48:10;;;;;;;24.00;14.77;;;;;;;-0.88;100.00;100657.16;5011637;28;20030;-72
2023/12/20 07:50:36;;;;;;;31.27;15.60;;;;;;;-0.84;100.00;100646.50;5011444;28;20562;-73
2023/12/20 07:53:03;;;;;;;26.37;16.00;;;;;;;-0.75;100.00;100648.94;5011451;28;20026;-73
2023/12/20 07:55:30;;;;;;;31.67;16.67;;;;;;;-0.57;100.00;100639.47;5011467;28;20081;-73
2023/12/20 07:57:55;;;;;;;26.87;16.33;;;;;;;-0.40;100.00;100641.78;5011248;28;20120;-73
2023/12/20 08:00:21;;;;;;;35.20;19.43;;;;;;;-0.25;100.00;100644.69;5011420;28;20104;-73
2023/12/20 08:02:46;;;;;;;32.85;19.15;;;;;;;-0.24;100.00;100618.53;5011384;28;20053;-73
2023/12/20 08:05:13;;;;;;;26.10;17.37;;;;;;;-0.02;100.00;100631.34;5010996;28;20080;-73
2023/12/20 08:07:38;;;;;;;33.03;17.88;;;;;;;-0.03;100.00;100608.38;5010779;28;20096;-73
2023/12/20 08:10:05;;;;;;;36.13;19.52;;;;;;;0.07;100.00;100615.09;5011405;28;20570;-74
2023/12/20 08:12:30;;;;;;;32.80;19.23;;;;;;;0.19;100.00;100630.41;5010857;28;20038;-73
2023/12/20 08:14:57;;;;;;;32.05;19.02;;;;;;;0.07;100.00;100630.31;5010886;28;20499;-73
2023/12/20 08:17:23;;;;;;;30.20;18.13;;;;;;;0.21;100.00;100622.16;5010927;28;20037;-74
2023/12/20 08:19:49;;;;;;;30.23;18.58;;;;;;;0.42;100.00;100617.91;5010902;28;20113;-69
2023/12/20 08:22:14;;;;;;;30.83;19.75;;;;;;;0.50;100.00;100620.19;5010854;28;20117;-73
2023/12/20 08:24:40;;;;;;;28.88;18.67;;;;;;;0.31;100.00;100608.56;5010241;28;20029;-74
2023/12/20 08:27:05;;;;;;;29.65;19.00;;;;;;;0.41;100.00;100616.16;5008181;28;20100;-77
2023/12/20 08:29:31;;;;;;;38.75;18.25;;;;;;;0.58;100.00;100614.94;5008276;28;20044;-74
2023/12/20 08:31:57;;;;;;;30.15;19.17;;;;;;;0.74;100.00;100606.88;4998394;28;20108;-77
2023/12/20 08:34:26;;;;;;;175.75;28.67;;;;;;;0.68;100.00;100580.97;5008292;28;20049;-73
2023/12/20 08:36:51;;;;;;;33.20;20.08;;;;;;;1.09;100.00;100601.09;5008488;28;20029;-78
2023/12/20 08:39:17;;;;;;;33.75;20.80;;;;;;;1.02;100.00;100593.75;5006392;28;20029;-75
2023/12/20 08:41:43;;;;;;;32.60;21.48;;;;;;;1.02;100.00;100600.50;5006477;28;20121;-75
2023/12/20 08:44:09;;;;;;;34.70;22.42;;;;;;;0.87;100.00;100572.25;5008624;28;20033;-77
2023/12/20 08:46:35;;;;;;;37.38;23.05;;;;;;;0.90;100.00;100559.81;5010765;28;20056;-73
2023/12/20 08:49:01;;;;;;;41.08;24.75;;;;;;;1.13;100.00;100572.63;5010783;28;20022;-72
2023/12/20 08:51:27;;;;;;;38.40;25.52;;;;;;;1.12;100.00;100555.56;5010858;28;20053;-72
2023/12/20 08:53:53;;;;;;;41.10;25.10;;;;;;;1.19;100.00;100571.31;5010475;28;20131;-71
2023/12/20 08:56:19;;;;;;;41.75;25.10;;;;;;;1.23;100.00;100565.66;5010488;28;20053;-72
2023/12/20 08:58:46;;;;;;;41.53;27.45;;;;;;;0.85;100.00;100467.03;5010202;28;20033;-71
2023/12/20 09:01:11;;;;;;;50.72;32.40;;;;;;;1.32;100.00;100561.28;5009919;28;20030;-75
2023/12/20 09:03:37;;;;;;;55.05;32.88;;;;;;;1.41;100.00;100559.44;5010143;28;20025;-70
2023/12/20 09:06:03;;;;;;;45.70;29.38;;;;;;;1.38;100.00;100549.00;5010499;28;20045;-71
2023/12/20 09:08:28;;;;;;;45.47;27.35;;;;;;;1.52;100.00;100546.63;5010567;28;20050;-71
2023/12/20 09:10:54;;;;;;;41.90;25.83;;;;;;;0.94;100.00;100449.94;5010455;28;20038;-70
2023/12/20 09:13:20;;;;;;;40.70;26.45;;;;;;;1.44;100.00;100538.41;5009703;28;20381;-76
2023/12/20 09:15:46;;;;;;;48.22;25.90;;;;;;;1.36;100.00;100507.31;5009955;28;20038;-70
2023/12/20 09:18:13;;;;;;;42.08;25.52;;;;;;;0.99;100.00;100456.25;5008158;28;20113;-75
2023/12/20 09:20:39;;;;;;;42.47;26.13;;;;;;;1.52;100.00;100508.44;5008709;28;20130;-71
2023/12/20 09:23:04;;;;;;;42.72;25.10;;;;;;;1.54;100.00;100487.44;5008412;28;20105;-71
2023/12/20 09:25:30;;;;;;;40.53;23.90;;;;;;;1.65;100.00;100490.75;5003035;28;20047;-70
2023/12/20 09:27:55;;;;;;;46.72;26.17;;;;;;;1.33;100.00;100405.34;5009079;28;20034;-72
2023/12/20 09:30:21;;;;;;;39.33;24.88;;;;;;;1.94;100.00;100477.63;5003148;28;20038;-73
2023/12/20 09:32:46;;;;;;;40.10;23.63;;;;;;;1.68;100.00;100414.63;4994915;28;20033;-72
2023/12/20 09:35:12;;;;;;;40.60;25.27;;;;;;;2.20;100.00;100470.03;5001727;28;20076;-71
2023/12/20 09:37:37;;;;;;;35.28;23.08;;;;;;;2.20;100.00;100434.38;5013183;28;20511;-74
2023/12/20 09:40:03;;;;;;;39.15;23.83;;;;;;;2.37;100.00;100449.19;4994377;28;20421;-77
2023/12/20 09:43:00;;;;;;;38.65;24.40;;;;;;;2.46;100.00;100433.63;4994875;28;20582;-80
2023/12/20 09:45:25;;;;;;;36.05;23.77;;;;;;;2.57;100.00;100452.22;4994797;28;20035;-72
2023/12/20 09:47:54;;;;;;;39.78;22.83;;;;;;;2.32;100.00;100385.94;5009523;28;20428;-75
2023/12/20 09:50:21;;;;;;;34.53;23.30;;;;;;;2.89;100.00;100450.94;5007190;28;20026;-72
2023/12/20 09:52:52;;;;;;;37.00;23.17;;;;;;;2.99;100.00;100440.59;5011488;28;20041;-73
2023/12/20 09:55:19;;;;;;;43.00;21.63;;;;;;;3.06;100.00;100436.78;5012102;28;20045;-71
2023/12/20 09:57:45;;;;;;;32.60;21.83;;;;;;;2.81;100.00;100375.63;5012940;28;20033;-71
2023/12/20 10:00:12;;;;;;;33.63;21.40;;;;;;;3.21;100.00;100429.25;5027159;28;20034;-70
2023/12/20 10:02:42;;;;;;;32.88;22.42;;;;;;;3.21;100.00;100424.16;5013486;28;20511;-70
2023/12/20 10:05:10;;;;;;;71.38;24.45;;;;;;;3.16;100.00;100405.13;5013225;28;20034;-72
2023/12/20 10:07:36;;;;;;;36.47;24.02;;;;;;;3.24;100.00;100411.63;5013323;28;20037;-70
2023/12/20 10:10:02;;;;;;;32.95;23.33;;;;;;;3.21;100.00;100404.63;5013438;28;20037;-70
2023/12/20 10:12:28;;;;;;;33.97;21.55;;;;;;;3.20;100.00;100407.09;5013623;28;20043;-70
2023/12/20 10:14:53;;;;;;;35.47;22.25;;;;;;;3.19;100.00;100401.09;5012901;28;20594;-70
2023/12/20 10:17:21;;;;;;;36.85;22.90;;;;;;;2.86;100.00;100336.91;5013062;28;20056;-70
2023/12/20 10:19:47;;;;;;;34.08;22.08;;;;;;;3.20;100.00;100396.88;5012653;28;20034;-70
2023/12/20 10:22:12;;;;;;;34.00;22.60;;;;;;;3.04;100.00;100390.78;5012949;28;20037;-70
2023/12/20 10:24:38;;;;;;;33.17;22.70;;;;;;;2.99;100.00;100389.59;5013168;28;20030;-70
2023/12/20 10:27:04;;;;;;;32.75;21.90;;;;;;;2.67;100.00;100326.28;5012787;28;20113;-69
2023/12/20 10:29:34;;;;;;;34.63;22.25;;;;;;;3.04;100.00;100383.13;5007565;28;20034;-69
2023/12/20 10:31:59;;;;;;;33.90;21.92;;;;;;;3.09;100.00;100368.16;5004945;28;20405;-70
2023/12/20 10:34:25;;;;;;;37.53;23.58;;;;;;;3.17;100.00;100366.09;4998783;28;20041;-70
2023/12/20 10:36:52;;;;;;;38.45;25.70;;;;;;;3.41;100.00;100366.75;5012198;28;20040;-70
2023/12/20 10:39:18;;;;;;;38.10;25.23;;;;;;;3.70;100.00;100358.41;5011579;28;20034;-70
2023/12/20 10:41:46;;;;;;;39.05;24.98;;;;;;;3.97;100.00;100354.91;5012582;28;20037;-69
2023/12/20 10:44:13;;;;;;;39.22;24.95;;;;;;;4.11;100.00;100337.88;5012225;28;20477;-70
2023/12/20 10:46:40;;;;;;;46.67;26.60;;;;;;;4.29;100.00;100344.09;5012530;28;20483;-69
2023/12/20 10:49:08;;;;;;;43.22;25.05;;;;;;;4.49;100.00;100340.16;5012342;28;20516;-69
2023/12/20 10:51:34;;;;;;;54.75;27.42;;;;;;;4.56;100.00;100320.97;5012496;28;20022;-69
2023/12/20 10:54:00;;;;;;;41.80;25.75;;;;;;;4.43;100.00;100260.56;5012130;28;20026;-70
2023/12/20 10:56:32;;;;;;;54.65;33.75;;;;;;;4.57;100.00;100252.81;5005277;28;20404;-70
2023/12/20 10:59:02;;;;;;;42.95;26.60;;;;;;;5.14;100.00;100312.31;5005637;28;20030;-70